Latest Weather Observations for Dunalley

IDT60801

Issued at 6:05 pm EST Saturday 2 August 2014 (issued every 30 minutes, with the page automatically refreshed every 10 minutes)

About weather observations | Map of weather stations | Latest weather observations for TAS | Other Formats
Station Details ID: 094254 Name: DUNALLEY (STROUD POINT) Lat: -42.90 Lon: 147.79 Height: 12.43 m
Data from the previous 72 hours. | See also: Recent months at Dunalley
Date/Time
EST
Temp
°C
App
Temp
°C
Dew
Point
Rel
Hum
%
Delta-T
°C
Wind Press
QNH
hPa
Press
MSL
hPa
Rain
since 9 am
mm
Dir
 
Spd
km/h
Gust
km/h
Spd
kts
Gust
kts
02/06:00pm 7.3 4.1 5.1 86 1.0 W 11 15 6 8 1026.1 1026.2 0.2
02/05:30pm 7.6 5.0 6.1 90 0.7 W 9 11 5 6 1025.9 - 0.2
02/05:00pm 7.5 4.5 5.8 89 0.8 W 11 15 6 8 1025.5 1025.6 0.2
02/04:30pm 8.2 3.8 6.7 90 0.7 W 19 24 10 13 1025.2 - 0.2
02/04:00pm 9.2 5.5 6.3 82 1.3 WSW 15 20 8 11 1024.9 1025.0 0.2
02/03:30pm 8.8 4.2 5.7 81 1.4 SW 19 22 10 12 1024.5 - 0.2
02/03:00pm 8.7 2.8 5.6 81 1.4 W 26 32 14 17 1024.3 1024.4 0.0
02/02:30pm 9.3 3.5 4.5 72 2.1 W 24 30 13 16 1023.6 - 0.0
02/02:00pm 9.7 3.6 4.7 71 2.2 W 26 32 14 17 1023.2 1023.3 0.0
02/01:30pm 8.9 1.9 4.3 73 2.0 W 30 35 16 19 1023.1 - 0.0
02/01:00pm 8.9 1.6 4.3 73 2.0 W 32 41 17 22 1023.0 1023.1 0.0
02/12:30pm 9.0 1.5 3.4 68 2.4 W 32 41 17 22 1022.8 - 0.0
02/12:00pm 9.1 1.5 3.7 69 2.3 W 33 41 18 22 1022.5 1022.6 0.0
02/11:30am 9.0 1.5 3.6 69 2.3 W 32 39 17 21 1022.5 - 0.0
02/11:00am 8.5 2.1 3.4 70 2.2 WNW 26 39 14 21 1022.6 1022.7 0.0
02/10:30am 7.5 1.0 2.6 71 2.0 WNW 26 37 14 20 1022.3 - 0.0
02/10:00am 7.2 -0.5 2.3 71 2.0 WNW 32 43 17 23 1021.8 1021.9 0.0
02/09:30am 6.4 -1.4 1.9 73 1.8 NW 32 39 17 21 1021.5 - 0.0
02/09:00am 5.7 -1.3 1.8 76 1.6 WNW 28 39 15 21 1021.5 1021.6 18.4
02/08:30am 4.9 -1.4 1.4 78 1.4 WNW 24 33 13 18 1021.5 - 18.4
02/08:00am 4.3 -2.1 1.0 79 1.3 WNW 24 33 13 18 1021.1 1021.2 18.4
02/07:30am 4.2 -2.6 0.7 78 1.3 WNW 26 37 14 20 1020.5 - 18.4
02/07:00am 3.9 -2.6 0.6 79 1.3 NW 24 35 13 19 1019.9 1020.0 18.4
02/06:30am 4.2 -2.6 0.5 77 1.4 WNW 26 35 14 19 1019.5 - 18.4
02/06:00am 4.0 -1.5 0.5 78 1.3 WNW 19 24 10 13 1019.1 1019.2 18.4
02/05:30am 4.4 -1.3 0.6 76 1.5 WNW 20 30 11 16 1018.8 - 18.4
02/05:00am 4.8 -0.9 0.4 73 1.7 W 20 30 11 16 1018.9 1019.0 18.4
02/04:30am 4.6 -1.2 0.2 73 1.7 W 20 30 11 16 1018.6 - 18.4
02/04:00am 4.5 -1.6 0.1 73 1.7 W 22 28 12 15 1018.1 1018.2 18.4
02/03:39am 5.1 -2.9 0.3 71 1.8 W 32 50 17 27 1018.0 - 18.4
02/03:30am 6.0 -3.4 2.1 76 1.6 W 41 54 22 29 1017.7 - 18.4
02/03:00am 5.7 -4.1 2.2 78 1.4 W 43 50 23 27 1017.5 1017.6 18.4
02/02:30am 5.8 -4.0 2.3 78 1.4 W 43 52 23 28 1017.5 - 18.4
02/02:00am 6.0 -4.1 1.7 74 1.7 W 44 52 24 28 1017.1 1017.2 18.4
02/01:30am 5.6 -3.1 2.1 78 1.4 W 37 43 20 23 1016.6 - 18.4
02/01:00am 5.9 -3.9 2.2 77 1.5 W 43 52 23 28 1016.1 1016.2 18.4
02/12:30am 5.6 -2.1 2.1 78 1.4 W 32 44 17 24 1015.7 - 18.4
02/12:00am 4.9 -1.4 1.7 80 1.3 W 24 32 13 17 1015.5 1015.6 18.4
 
Date/Time
EST
Temp
°C
App
Temp
°C
Dew
Point
Rel
Hum
%
Delta-T
°C
Wind Press
QNH
hPa
Press
MSL
hPa
Rain
since 9 am
mm
Dir
 
Spd
km/h
Gust
km/h
Spd
kts
Gust
kts
01/11:30pm 6.1 -1.2 2.6 78 1.4 WSW 30 37 16 20 1015.0 - 18.4
01/11:26pm 5.9 -1.5 2.0 76 1.6 WSW 30 35 16 19 1014.9 - 18.4
01/11:08pm 6.0 -4.4 1.9 75 1.7 SW 46 54 25 29 1014.8 - 18.4
01/11:00pm 5.7 -4.2 2.7 81 1.2 W 44 57 24 31 1014.4 1014.5 18.4
01/10:30pm 6.5 -0.7 2.9 78 1.5 WSW 30 44 16 24 1013.6 - 18.4
01/10:00pm 5.6 -0.5 2.6 81 1.2 WSW 24 32 13 17 1013.4 1013.5 18.4
01/09:30pm 5.1 -2.5 2.6 84 1.0 SW 32 44 17 24 1013.1 - 18.4
01/09:13pm 5.8 -2.7 3.0 82 1.2 WSW 37 57 20 31 1012.7 - 18.0
01/09:08pm 5.7 -2.8 3.0 83 1.1 WSW 37 43 20 23 1012.7 - 18.0
01/09:00pm 5.5 -3.4 2.8 83 1.1 SSW 39 57 21 31 1012.6 1012.6 18.0
01/08:46pm 5.8 -1.0 3.3 84 1.0 SSW 28 50 15 27 1012.0 - 17.6
01/08:39pm 6.4 0.4 3.4 81 1.3 SSW 24 30 13 16 1011.8 - 17.4
01/08:30pm 6.4 -4.0 4.2 86 0.9 WSW 48 56 26 30 1011.3 - 17.4
01/08:00pm 6.7 -2.8 4.0 83 1.2 WSW 43 50 23 27 1010.2 1010.2 17.2
01/07:30pm 6.2 -1.5 2.5 77 1.5 SW 32 37 17 20 1009.5 - 17.2
01/07:00pm 6.5 -2.9 4.2 85 1.0 WSW 43 65 23 35 1008.6 1008.6 17.2
01/06:57pm 6.6 -2.1 3.9 83 1.2 WSW 39 65 21 35 1008.5 - 17.2
01/06:54pm 6.3 -1.1 3.8 84 1.1 WSW 32 33 17 18 1008.4 - 17.2
01/06:39pm 6.2 -2.1 4.4 88 0.8 SSW 37 61 20 33 1008.2 - 17.0
01/06:30pm 6.1 -1.2 4.3 88 0.8 WSW 32 44 17 24 1007.9 - 16.6
01/06:00pm 6.4 0.5 4.1 85 1.0 WSW 24 33 13 18 1007.0 1007.0 15.8
01/05:38pm 5.8 -3.8 3.5 85 1.0 SW 43 63 23 34 1006.3 - 15.8
01/05:30pm 6.2 -3.6 3.2 81 1.3 SW 44 63 24 34 1006.1 - 15.6
01/05:15pm 7.3 -4.7 3.7 78 1.5 SW 56 65 30 35 1005.1 - 15.0
01/05:14pm 7.9 0.8 3.8 75 1.8 SW 30 63 16 34 1005.1 - 15.0
01/05:00pm 7.3 2.2 4.3 81 1.3 WSW 20 32 11 17 1004.7 1004.7 15.0
01/04:30pm 7.7 -1.1 3.7 76 1.7 SSW 39 50 21 27 1003.4 - 15.0
01/04:11pm 6.8 -0.9 3.6 80 1.4 WSW 33 57 18 31 1003.0 - 15.0
01/04:00pm 6.8 -1.3 3.4 79 1.4 SW 35 41 19 22 1002.5 1002.5 14.8
01/03:57pm 6.8 -1.4 2.9 76 1.6 SW 35 41 19 22 1002.5 - 14.8
01/03:44pm 6.6 -5.6 2.7 76 1.6 SSW 56 76 30 41 1002.6 - 14.8
01/03:41pm 6.8 -6.8 2.1 72 1.9 SSW 63 76 34 41 1002.3 - 14.8
01/03:40pm 7.2 -1.6 3.4 77 1.6 SW 39 76 21 41 1002.4 - 14.8
01/03:37pm 7.7 0.0 3.4 74 1.8 SW 33 54 18 29 1002.3 - 14.8
01/03:30pm 7.4 -0.4 3.1 74 1.8 SW 33 41 18 22 1001.8 - 14.8
01/03:10pm 6.6 -2.6 3.4 80 1.3 SW 41 48 22 26 1001.0 - 14.8
01/03:06pm 6.4 -7.1 2.7 77 1.5 SW 63 72 34 39 1000.8 - 14.8
01/03:04pm 6.2 -3.4 3.5 83 1.1 SSW 43 69 23 37 1001.1 - 14.8
01/03:00pm 5.4 -3.8 3.7 89 0.7 SSW 41 56 22 30 1001.3 1001.3 14.8
01/02:57pm 5.2 -4.6 3.5 89 0.7 SSW 44 56 24 30 1001.2 - 14.6
01/02:55pm 5.4 -4.1 3.9 90 0.6 WSW 43 69 23 37 1001.0 - 14.2
01/02:54pm 5.4 -2.8 4.7 95 0.3 WSW 37 46 20 25 1001.1 - 14.2
01/02:30pm 4.3 -1.3 3.6 95 0.3 WNW 22 30 12 16 999.9 - 12.6
01/02:22pm 4.4 -0.8 3.5 94 0.4 WNW 20 26 11 14 999.8 - 12.6
01/02:10pm 4.9 -5.2 4.0 94 0.4 W 46 67 25 36 999.9 - 12.4
01/02:06pm 5.7 -6.4 4.3 91 0.6 WSW 57 67 31 36 999.3 - 12.0
01/02:05pm 5.9 -3.7 4.2 89 0.7 SW 44 67 24 36 998.9 - 12.0
01/02:00pm 6.1 -4.0 3.6 84 1.1 SW 46 61 25 33 999.0 999.0 11.6
01/01:48pm 5.7 -3.9 3.5 86 0.9 SSW 43 54 23 29 999.1 - 11.0
01/01:38pm 4.9 -3.4 4.0 94 0.4 WSW 37 46 20 25 999.1 - 10.6
01/01:30pm 4.9 0.7 4.0 94 0.4 W 15 22 8 12 998.8 - 8.0
01/01:05pm 5.5 -2.0 4.5 93 0.4 WSW 33 54 18 29 997.7 - 6.2
01/01:00pm 5.6 -1.3 4.6 93 0.4 WSW 30 39 16 21 997.6 997.6 5.8
01/12:46pm 5.1 -0.4 4.1 93 0.4 WNW 22 30 12 16 997.2 - 5.4
01/12:30pm 5.2 -4.3 4.0 92 0.5 WSW 43 54 23 29 997.1 - 5.0
01/12:20pm 5.8 -2.5 4.1 89 0.7 WSW 37 54 20 29 996.7 - 4.2
01/12:00pm 6.3 -0.2 4.8 90 0.7 W 28 37 15 20 995.9 995.9 3.0
01/11:30am 5.7 0.8 4.2 90 0.6 WNW 19 24 10 13 995.2 - 3.0
01/11:00am 5.5 -2.4 4.2 91 0.6 WSW 35 43 19 23 995.4 995.4 2.6
01/10:30am 5.6 -3.5 3.9 89 0.7 WSW 41 48 22 26 994.4 - 1.6
01/10:27am 5.7 -3.4 4.0 89 0.7 WSW 41 48 22 26 994.3 - 1.6
01/10:00am 5.9 -3.1 4.4 90 0.6 SW 41 52 22 28 993.6 993.6 0.6
01/09:56am 6.2 -3.2 4.2 87 0.9 SSW 43 52 23 28 993.4 - 0.4
01/09:50am 6.7 -0.9 2.8 76 1.6 W 32 52 17 28 993.0 - 0.0
01/09:30am 7.8 1.1 1.2 63 2.7 W 26 37 14 20 992.1 - 0.0
01/09:00am 7.0 -1.0 0.5 63 2.6 WNW 32 44 17 24 991.1 991.1 17.8
01/08:30am 6.6 -0.2 0.5 65 2.4 WNW 26 41 14 22 990.2 - 17.8
01/08:11am 6.1 -1.5 0.4 67 2.2 NW 30 50 16 27 989.5 - 17.8
01/08:00am 5.9 -2.3 0.5 68 2.1 NW 33 50 18 27 989.3 989.3 17.8
01/07:30am 5.6 -2.5 0.8 71 1.9 NW 33 54 18 29 989.2 - 17.8
01/07:06am 5.7 -2.3 0.7 70 2.0 NW 32 56 17 30 989.0 - 17.8
01/07:00am 5.7 -1.5 0.7 70 2.0 NW 28 44 15 24 988.9 988.9 17.8
01/06:46am 5.7 -1.9 0.7 70 2.0 NW 30 50 16 27 988.2 - 17.8
01/06:30am 6.0 -0.8 0.6 68 2.1 NW 26 46 14 25 988.7 - 17.8
01/06:15am 6.3 -1.0 0.2 65 2.4 NW 28 48 15 26 988.8 - 17.8
01/06:00am 5.9 0.2 0.3 67 2.2 NW 20 43 11 23 988.7 988.7 17.8
01/05:30am 5.8 -1.0 0.8 70 2.0 NW 26 46 14 25 988.2 - 17.8
01/05:25am 5.8 -1.4 0.8 70 2.0 NW 28 46 15 25 988.2 - 17.8
01/05:00am 5.8 -1.4 0.4 68 2.1 NW 28 44 15 24 987.7 987.7 17.8
01/04:38am 6.0 -1.5 1.0 70 2.0 NW 30 50 16 27 987.9 - 17.8
01/04:30am 6.0 -1.2 1.0 70 2.0 WNW 28 46 15 25 988.0 - 17.8
01/04:00am 6.4 -1.2 0.3 65 2.4 NNW 30 46 16 25 987.9 987.9 17.8
01/03:30am 6.0 -1.2 0.6 68 2.1 NW 28 46 15 25 987.7 - 17.8
01/03:26am 5.9 -1.3 0.7 69 2.0 NW 28 46 15 25 987.6 - 17.8
01/03:00am 5.6 -2.0 0.8 71 1.9 NW 30 44 16 24 987.6 987.6 17.8
01/02:32am 5.3 -2.6 1.1 74 1.6 WNW 32 50 17 27 987.1 - 17.8
01/02:30am 5.3 -2.8 1.1 74 1.6 NW 33 50 18 27 987.2 - 17.8
01/02:02am 5.7 -1.5 0.5 69 2.0 NW 28 48 15 26 986.6 - 17.8
01/02:00am 5.7 -1.5 0.7 70 2.0 NW 28 44 15 24 986.5 986.5 17.8
01/01:30am 5.5 -1.3 0.9 72 1.8 NW 26 44 14 24 986.5 - 17.8
01/01:00am 5.2 -2.7 1.1 75 1.6 NW 32 54 17 29 986.3 986.3 17.8
01/12:51am 5.5 -2.6 1.1 73 1.7 NW 33 54 18 29 986.1 - 17.6
01/12:30am 5.1 -2.9 1.8 79 1.3 NW 33 46 18 25 986.1 - 17.6
01/12:02am 4.6 -2.4 1.8 82 1.1 NW 28 46 15 25 985.5 - 17.6
01/12:00am 4.6 -2.8 2.0 83 1.1 NW 30 46 16 25 985.5 985.5 17.6
 
Date/Time
EST
Temp
°C
App
Temp
°C
Dew
Point
Rel
Hum
%
Delta-T
°C
Wind Press
QNH
hPa
Press
MSL
hPa
Rain
since 9 am
mm
Dir
 
Spd
km/h
Gust
km/h
Spd
kts
Gust
kts
31/11:30pm 4.5 -4.1 2.4 86 0.8 NNW 37 57 20 31 985.2 - 17.6
31/11:00pm 6.0 -3.9 1.9 75 1.7 NW 43 70 23 38 984.9 984.9 17.0
31/10:33pm 6.2 -1.8 1.9 74 1.7 NW 33 56 18 30 984.0 - 16.8
31/10:30pm 6.0 -1.7 2.1 76 1.6 NW 32 46 17 25 983.9 - 16.8
31/10:00pm 6.3 -2.0 2.4 76 1.6 WNW 35 54 19 29 984.3 984.3 16.8
31/09:31pm 6.2 -2.1 2.1 75 1.7 WNW 35 54 19 29 984.2 - 16.8
31/09:30pm 6.3 -2.4 2.0 74 1.7 WNW 37 54 20 29 984.1 - 16.8
31/09:02pm 6.7 -1.1 2.0 72 1.9 WNW 32 50 17 27 984.0 - 16.8
31/09:00pm 6.6 -1.2 1.9 72 1.9 WNW 32 50 17 27 984.0 984.0 16.8
31/08:48pm 6.5 -0.5 2.0 73 1.8 NW 28 50 15 27 983.5 - 16.8
31/08:30pm 6.0 -0.9 2.5 78 1.4 NW 28 44 15 24 982.9 - 16.8
31/08:00pm 7.3 -0.4 2.4 71 2.1 WNW 32 57 17 31 982.7 982.7 16.6
31/07:30pm 7.5 0.5 1.8 67 2.3 NW 28 48 15 26 982.0 - 16.6
31/07:03pm 8.9 0.8 1.1 58 3.2 NW 33 83 18 45 982.2 - 16.6
31/07:00pm 9.1 2.0 1.3 58 3.3 NW 28 46 15 25 982.0 982.0 16.6
31/06:36pm 9.0 2.1 2.3 63 2.8 NW 28 57 15 31 981.7 - 16.6
31/06:30pm 8.9 2.0 2.7 65 2.6 NW 28 46 15 25 981.6 - 16.6
31/06:18pm 9.1 2.2 2.4 63 2.8 NNW 28 50 15 27 981.8 - 16.6
31/06:00pm 8.5 4.4 4.1 74 2.0 NNW 15 22 8 12 981.3 981.3 16.6
31/05:30pm 8.1 3.6 4.3 77 1.7 N 17 26 9 14 981.3 - 16.6
31/05:00pm 7.5 4.6 4.8 83 1.2 WSW 9 17 5 9 980.9 980.9 16.6
31/04:30pm 6.6 4.4 5.2 91 0.6 WSW 6 9 3 5 982.0 - 16.6
31/04:00pm 6.2 4.6 4.7 90 0.7 SW 2 9 1 5 981.6 981.6 16.6
31/03:30pm 6.3 4.0 4.9 91 0.6 SW 6 7 3 4 981.4 - 16.6
31/03:00pm 6.7 3.6 5.5 92 0.5 SSW 11 17 6 9 981.8 981.8 16.6
31/02:30pm 6.3 0.3 5.1 92 0.5 SSW 26 30 14 16 982.6 - 16.4
31/02:00pm 6.5 1.4 5.9 96 0.3 S 22 26 12 14 981.7 981.7 15.6
31/01:30pm 6.8 2.7 6.4 97 0.2 S 17 19 9 10 981.8 - 13.6
31/01:00pm 7.2 3.6 6.9 98 0.1 N 15 17 8 9 982.0 982.0 10.6
31/12:30pm 7.5 5.7 7.2 98 0.1 N 6 7 3 4 982.7 - 8.2
31/12:00pm 7.4 5.6 7.1 98 0.1 N 6 9 3 5 983.7 983.7 6.4
31/11:30am 7.5 4.4 7.2 98 0.1 NNW 13 15 7 8 983.7 - 5.6
31/11:26am 7.5 4.4 7.2 98 0.1 NW 13 15 7 8 983.8 - 5.4
31/11:00am 7.7 7.0 7.1 96 0.3 CALM 0 0 0 0 985.8 985.8 3.8
31/10:30am 7.6 6.1 6.9 95 0.3 NW 4 6 2 3 986.0 - 2.2
31/10:00am 7.8 6.0 7.1 95 0.3 NW 6 7 3 4 986.4 986.4 0.6
31/09:30am 7.9 7.1 6.7 92 0.6 CALM 0 2 0 1 986.6 - 0.2
31/09:00am 8.0 6.1 6.5 90 0.7 WNW 6 7 3 4 987.6 987.6 8.6
31/08:30am 7.8 4.5 6.3 90 0.7 NW 13 17 7 9 988.5 - 8.4
31/08:00am 7.9 4.5 6.0 88 0.9 NNW 13 19 7 10 989.0 989.0 8.0
31/07:30am 7.5 5.5 6.3 92 0.5 SSW 6 11 3 6 989.5 - 7.8
31/07:00am 7.4 5.5 6.5 94 0.4 SSW 6 7 3 4 989.5 989.5 6.8
31/06:30am 7.9 5.5 6.8 93 0.5 SSW 9 11 5 6 990.0 - 6.0
31/06:00am 7.7 5.2 6.6 93 0.5 SSW 9 13 5 7 989.6 989.6 6.0
31/05:30am 8.0 5.3 7.2 95 0.4 SSW 11 20 6 11 990.0 - 5.8
31/05:00am 8.2 1.3 7.4 95 0.4 SSW 33 44 18 24 990.0 990.0 3.4
31/04:30am 10.7 5.4 8.3 85 1.2 W 26 35 14 19 988.7 - 0.6
31/04:05am 11.4 5.5 7.5 77 1.9 W 28 44 15 24 988.3 - 0.2
31/04:00am 10.5 9.0 8.4 87 1.0 W 6 13 3 7 988.4 988.4 0.2
31/03:30am 10.1 8.6 8.5 90 0.8 W 6 9 3 5 988.7 - 0.2
31/03:00am 10.6 4.3 8.9 89 0.9 SW 32 48 17 26 988.9 988.9 0.2
31/02:47am 12.3 3.5 8.0 75 2.1 WSW 44 48 24 26 989.3 - 0.0
31/02:30am 15.1 9.6 5.9 54 4.4 NW 24 43 13 23 988.4 - 0.0
31/02:01am 14.9 8.2 5.4 53 4.5 NW 30 48 16 26 988.3 - 0.0
31/02:00am 14.9 8.5 5.4 53 4.6 NW 28 37 15 20 988.4 988.4 0.0
31/01:30am 15.0 6.8 4.7 50 4.8 WNW 37 67 20 36 988.0 - 0.0
31/01:00am 14.9 7.0 4.6 50 4.9 NW 35 56 19 30 987.9 987.9 0.0
31/12:55am 14.9 7.4 4.6 50 4.8 NW 33 54 18 29 987.8 - 0.0
31/12:30am 14.5 7.6 4.5 51 4.6 NW 30 43 16 23 987.9 - 0.0
31/12:10am 14.5 7.9 4.2 50 4.7 NW 28 52 15 28 988.6 - 0.0
31/12:00am 14.3 8.8 4.0 50 4.8 NW 22 44 12 24 989.1 989.1 0.0
 
Date/Time
EST
Temp
°C
App
Temp
°C
Dew
Point
Rel
Hum
%
Delta-T
°C
Wind Press
QNH
hPa
Press
MSL
hPa
Rain
since 9 am
mm
Dir
 
Spd
km/h
Gust
km/h
Spd
kts
Gust
kts
30/11:34pm 14.3 7.8 4.6 52 4.5 NW 28 48 15 26 989.2 - 0.0
30/11:30pm 14.1 8.0 4.7 53 4.4 WNW 26 41 14 22 989.3 - 0.0
30/11:04pm 14.3 7.7 4.3 51 4.6 NW 28 48 15 26 989.4 - 0.0
30/11:00pm 14.7 7.4 4.4 50 4.8 NW 32 48 17 26 989.4 989.4 0.0
30/10:30pm 15.1 5.6 3.9 47 5.1 WNW 43 70 23 38 989.6 - 0.0
30/10:27pm 15.1 6.4 3.9 47 5.1 WNW 39 70 21 38 989.6 - 0.0
30/10:01pm 14.9 7.5 4.0 48 5.0 NW 32 50 17 27 990.1 - 0.0
30/10:00pm 15.0 7.6 4.1 48 5.1 NW 32 48 17 26 990.2 990.2 0.0
30/09:33pm 14.6 8.1 4.6 51 4.6 NW 28 46 15 25 990.4 - 0.0
30/09:30pm 14.4 7.5 4.7 52 4.5 NW 30 46 16 25 990.4 - 0.0
30/09:14pm 14.3 7.8 4.9 53 4.4 NW 28 46 15 25 990.5 - 0.0
30/09:00pm 13.8 8.9 4.9 55 4.2 NNW 20 30 11 16 990.7 990.7 0.0
30/08:30pm 13.3 8.6 5.2 58 3.8 NW 19 37 10 20 991.3 - 0.0
30/08:00pm 12.9 8.0 5.3 60 3.6 NNW 20 39 11 21 991.7 991.7 0.0
30/07:30pm 13.4 8.5 5.3 58 3.8 NW 20 39 11 21 992.3 - 0.0
30/07:00pm 13.3 7.8 5.7 60 3.6 WNW 24 39 13 21 992.8 992.8 0.0
30/06:33pm 13.5 7.2 5.9 60 3.6 WNW 28 46 15 25 992.8 - 0.0
30/06:30pm 13.6 7.4 6.0 60 3.6 WNW 28 41 15 22 992.8 - 0.0

Other Formats:

Comma delimited format used in spreadsheet applications
http://www.bom.gov.au/fwo/IDT60801/IDT60801.94951.axf

JavaScript Object Notation format (JSON) in row-major order
http://www.bom.gov.au/fwo/IDT60801/IDT60801.94951.json